createdAt,value
2022-11-01T00:00:05.762Z,11.90
2022-11-01T00:02:42.850Z,15.80
2022-11-01T00:05:13.260Z,12.50
2022-11-01T00:07:43.453Z,13.38
2022-11-01T00:12:48.596Z,10.88
2022-11-01T00:15:18.846Z,10.80
2022-11-01T00:17:49.008Z,18.00
2022-11-01T00:20:19.415Z,18.75
2022-11-01T00:22:49.666Z,15.05
2022-11-01T00:25:22.167Z,13.65
2022-11-01T00:27:52.366Z,14.77
2022-11-01T00:30:22.535Z,15.00
2022-11-01T00:32:52.717Z,17.20
2022-11-01T00:35:22.856Z,17.30
2022-11-01T00:37:53.091Z,20.65
2022-11-01T00:40:25.548Z,17.15
2022-11-01T00:42:55.690Z,13.80
2022-11-01T00:45:25.836Z,14.38
2022-11-01T00:47:56.034Z,18.30
2022-11-01T00:50:26.222Z,12.68
2022-11-01T00:52:56.411Z,15.77
2022-11-01T00:55:29.001Z,12.23
2022-11-01T00:57:59.476Z,15.05
2022-11-01T01:00:42.220Z,16.85
2022-11-01T01:03:13.415Z,15.05
2022-11-01T01:05:43.576Z,13.93
2022-11-01T01:08:13.840Z,12.75
2022-11-01T01:10:46.364Z,16.58
2022-11-01T01:13:16.704Z,21.05
2022-11-01T01:15:46.903Z,24.48
2022-11-01T01:18:17.363Z,18.67
2022-11-01T01:20:47.739Z,19.05
2022-11-01T01:23:17.948Z,14.38
2022-11-01T01:25:50.461Z,18.33
2022-11-01T01:28:20.674Z,17.65
2022-11-01T01:30:50.839Z,14.60
2022-11-01T01:33:20.724Z,16.67
2022-11-01T01:35:50.919Z,17.13
2022-11-01T01:38:21.071Z,13.82
2022-11-01T01:40:53.519Z,15.20
2022-11-01T01:43:23.757Z,13.80
2022-11-01T01:45:53.911Z,20.95
2022-11-01T01:48:27.713Z,12.93
2022-11-01T01:51:02.103Z,15.77
2022-11-01T01:53:35.951Z,12.70
2022-11-01T01:56:13.094Z,16.45
2022-11-01T01:58:45.876Z,17.63
2022-11-01T02:01:16.083Z,17.77
2022-11-01T02:03:47.153Z,18.77
2022-11-01T02:06:20.165Z,18.25
2022-11-01T02:08:52.823Z,20.27
2022-11-01T02:11:25.972Z,27.73
2022-11-01T02:13:56.122Z,26.67
2022-11-01T02:16:45.489Z,17.98
2022-11-01T02:19:54.395Z,23.42
2022-11-01T02:22:34.393Z,17.85
2022-11-01T02:25:23.579Z,15.75
2022-11-01T02:28:11.628Z,15.40
2022-11-01T02:30:48.216Z,16.73
2022-11-01T02:33:32.838Z,17.73
2022-11-01T02:36:08.132Z,17.42
2022-11-01T02:38:42.845Z,15.43
2022-11-01T02:41:17.653Z,15.50
2022-11-01T02:43:55.028Z,17.92
2022-11-01T02:46:38.430Z,18.80
2022-11-01T02:49:14.003Z,13.35
2022-11-01T02:51:46.096Z,16.80
2022-11-01T02:54:23.567Z,13.45
2022-11-01T02:56:53.905Z,17.52
2022-11-01T02:59:28.423Z,18.70
2022-11-01T03:02:04.707Z,28.15
2022-11-01T03:04:38.041Z,24.27
2022-11-01T03:07:11.707Z,23.85
2022-11-01T03:09:42.412Z,25.40
2022-11-01T03:12:18.895Z,23.73
2022-11-01T03:14:57.664Z,24.73
2022-11-01T03:17:35.403Z,24.25
2022-11-01T03:20:16.459Z,23.27
2022-11-01T03:22:49.461Z,22.35
2022-11-01T03:25:35.713Z,27.02
2022-11-01T03:28:09.342Z,22.10
2022-11-01T03:30:44.323Z,25.25
2022-11-01T03:33:16.361Z,24.42
2022-11-01T03:35:52.390Z,27.52
2022-11-01T03:38:27.236Z,21.67
2022-11-01T03:41:03.292Z,21.60
2022-11-01T03:43:34.719Z,16.60
2022-11-01T03:46:04.879Z,22.63
2022-11-01T03:48:35.002Z,26.45
2022-11-01T03:51:07.759Z,28.00
2022-11-01T03:53:38.019Z,23.20
2022-11-01T03:56:08.642Z,22.50
2022-11-01T03:58:46.024Z,22.30
2022-11-01T04:01:17.764Z,26.55
2022-11-01T04:03:48.282Z,26.42
2022-11-01T04:06:20.751Z,23.42
2022-11-01T04:08:50.869Z,23.58
2022-11-01T04:11:21.043Z,14.85
2022-11-01T04:13:51.183Z,20.90
2022-11-01T04:16:33.826Z,24.70
2022-11-01T04:19:16.474Z,23.65
2022-11-01T04:21:49.144Z,19.25
2022-11-01T04:24:21.058Z,19.08
2022-11-01T04:26:51.549Z,21.00
2022-11-01T04:29:21.697Z,19.83
2022-11-01T04:31:51.846Z,19.15
2022-11-01T04:34:42.012Z,26.05
2022-11-01T04:37:14.973Z,18.45
2022-11-01T04:39:45.246Z,19.52
2022-11-01T04:42:15.456Z,19.15
2022-11-01T04:44:46.818Z,17.58
2022-11-01T04:47:16.985Z,19.02
2022-11-01T04:49:47.183Z,14.90
2022-11-01T04:52:19.784Z,16.35
2022-11-01T04:54:49.949Z,18.77
2022-11-01T04:57:25.453Z,22.73
2022-11-01T04:59:56.263Z,17.70
2022-11-01T05:02:26.979Z,18.33
2022-11-01T05:04:57.133Z,19.05
2022-11-01T05:07:30.953Z,21.13
2022-11-01T05:10:01.155Z,20.85
2022-11-01T05:12:31.334Z,22.20
2022-11-01T05:15:01.529Z,17.90
2022-11-01T05:17:31.680Z,21.67
2022-11-01T05:20:01.845Z,22.40
2022-11-01T05:22:34.344Z,19.40
2022-11-01T05:25:04.471Z,23.05
2022-11-01T05:27:34.675Z,21.13
2022-11-01T05:30:05.050Z,25.45
2022-11-01T05:32:35.631Z,23.77
2022-11-01T05:35:06.333Z,25.33
2022-11-01T05:37:38.827Z,20.00
2022-11-01T05:40:10.495Z,20.90
2022-11-01T05:42:41.536Z,28.30
2022-11-01T05:45:12.762Z,25.30
2022-11-01T05:47:44.073Z,25.02
2022-11-01T05:50:15.135Z,21.88
2022-11-01T05:52:47.784Z,24.67
2022-11-01T05:55:17.962Z,21.88
2022-11-01T06:00:18.296Z,19.30
2022-11-01T06:02:48.516Z,24.92
2022-11-01T06:05:18.873Z,23.80
2022-11-01T06:07:51.344Z,18.20
2022-11-01T06:10:21.651Z,16.38
2022-11-01T06:12:51.962Z,19.60
2022-11-01T06:15:22.207Z,27.63
2022-11-01T06:17:52.505Z,19.02
2022-11-01T06:20:22.653Z,20.15
2022-11-01T06:22:55.121Z,22.67
2022-11-01T06:25:25.910Z,21.38
2022-11-01T06:27:57.020Z,22.02
2022-11-01T06:30:27.161Z,23.45
2022-11-01T06:33:02.191Z,18.90
2022-11-01T06:35:32.632Z,19.35
2022-11-01T06:38:09.420Z,23.92
2022-11-01T06:40:39.946Z,23.95
2022-11-01T06:43:10.141Z,25.58
2022-11-01T06:45:40.315Z,23.85
2022-11-01T06:48:10.542Z,27.63
2022-11-01T06:50:40.809Z,20.23
2022-11-01T06:53:13.363Z,22.85
2022-11-01T06:55:43.550Z,24.75
2022-11-01T06:58:13.735Z,23.65
2022-11-01T07:00:44.026Z,23.95
2022-11-01T07:03:15.807Z,21.50
2022-11-01T07:05:46.216Z,22.88
2022-11-01T07:08:19.011Z,19.48
2022-11-01T07:10:54.416Z,20.02
2022-11-01T07:13:24.613Z,20.52
2022-11-01T07:15:54.746Z,18.88
2022-11-01T07:18:24.903Z,20.25
2022-11-01T07:20:55.073Z,24.27
2022-11-01T07:23:29.344Z,25.30
2022-11-01T07:28:29.497Z,16.92
2022-11-01T07:31:00.029Z,19.73
2022-11-01T07:33:30.111Z,16.45
2022-11-01T07:36:00.261Z,23.50
2022-11-01T07:38:32.999Z,24.77
2022-11-01T07:41:03.164Z,19.38
2022-11-01T07:43:34.374Z,17.88
2022-11-01T07:46:07.412Z,20.23
2022-11-01T07:48:37.945Z,20.65
2022-11-01T07:51:09.715Z,18.52
2022-11-01T07:53:42.369Z,16.92
2022-11-01T07:56:14.334Z,19.33
2022-11-01T07:58:44.623Z,21.58
2022-11-01T08:01:14.939Z,15.10
2022-11-01T08:03:44.855Z,23.55
2022-11-01T08:06:14.828Z,20.83
2022-11-01T08:08:47.357Z,20.45
2022-11-01T08:11:17.257Z,24.95
2022-11-01T08:13:47.763Z,16.85
2022-11-01T08:16:18.413Z,18.17
2022-11-01T08:18:51.682Z,10.65
2022-11-01T08:21:21.899Z,9.93
2022-11-01T08:23:54.463Z,11.32
2022-11-01T08:26:25.400Z,11.95
2022-11-01T08:28:55.253Z,12.20
2022-11-01T08:31:25.117Z,12.10
2022-11-01T08:33:55.260Z,10.50
2022-11-01T08:36:25.660Z,8.85
2022-11-01T08:38:58.145Z,7.28
2022-11-01T08:41:28.406Z,9.05
2022-11-01T08:43:59.844Z,10.07
2022-11-01T08:46:29.721Z,11.45
2022-11-01T08:49:00.567Z,8.95
2022-11-01T08:51:32.662Z,7.47
2022-11-01T08:54:05.435Z,8.95
2022-11-01T08:56:35.436Z,9.70
2022-11-01T08:59:05.679Z,9.20
2022-11-01T09:01:35.714Z,11.30
2022-11-01T09:04:06.377Z,13.43
2022-11-01T09:06:36.629Z,8.70
2022-11-01T09:09:10.208Z,6.18
2022-11-01T09:11:40.397Z,10.73
2022-11-01T09:14:10.332Z,9.32
2022-11-01T09:16:40.468Z,9.52
2022-11-01T09:19:10.635Z,7.00
2022-11-01T09:21:40.757Z,10.65
2022-11-01T09:24:14.100Z,11.02
2022-11-01T09:26:44.395Z,9.05
2022-11-01T09:29:14.594Z,8.50
2022-11-01T09:31:44.506Z,5.68
2022-11-01T09:34:14.692Z,9.73
2022-11-01T09:36:44.971Z,5.88
2022-11-01T09:39:22.010Z,6.07
2022-11-01T09:41:54.731Z,5.30
2022-11-01T09:44:29.944Z,4.28
2022-11-01T09:47:03.461Z,4.25
2022-11-01T09:49:38.110Z,3.85
2022-11-01T09:52:08.942Z,5.18
2022-11-01T09:54:41.450Z,4.60
2022-11-01T09:57:22.140Z,10.52
2022-11-01T10:00:04.410Z,3.97
2022-11-01T10:02:59.101Z,3.63
2022-11-01T10:05:41.185Z,5.25
2022-11-01T10:08:19.752Z,6.47
2022-11-01T10:11:01.821Z,5.22
2022-11-01T10:13:46.137Z,5.10
2022-11-01T10:18:57.747Z,3.80
2022-11-01T10:21:31.468Z,2.30
2022-11-01T10:24:06.167Z,3.05
2022-11-01T10:26:44.438Z,6.07
2022-11-01T10:29:19.798Z,5.75
2022-11-01T10:31:54.447Z,3.58
2022-11-01T10:34:29.786Z,3.75
2022-11-01T10:37:17.199Z,5.07
2022-11-01T10:39:59.919Z,3.50
2022-11-01T10:42:35.688Z,5.20
2022-11-01T10:45:08.868Z,4.13
2022-11-01T10:47:42.707Z,5.47
2022-11-01T10:50:20.491Z,5.40
2022-11-01T10:52:55.574Z,5.25
2022-11-01T10:55:29.494Z,7.00
2022-11-01T11:00:34.602Z,4.72
2022-11-01T11:03:21.023Z,5.00
2022-11-01T11:05:51.776Z,6.50
2022-11-01T11:08:25.052Z,5.07
2022-11-01T11:11:04.403Z,3.67
2022-11-01T11:13:38.016Z,4.72
2022-11-01T11:16:08.880Z,3.72
2022-11-01T11:18:43.507Z,3.38
2022-11-01T11:21:15.788Z,3.13
2022-11-01T11:23:47.912Z,3.20
2022-11-01T11:26:21.281Z,4.03
2022-11-01T11:28:57.095Z,3.25
2022-11-01T11:31:30.190Z,3.47
2022-11-01T11:34:03.763Z,2.30
2022-11-01T11:36:37.086Z,2.50
2022-11-01T11:39:08.228Z,6.65
